Weather reports worldwide

Advertisment
Newcastle, United Kingdom (3245): temperature & dewpoint: 15.10.2017 06:00:00 - 21.10.2017 06:00:00 (BST)Newcastle, United Kingdom (3245): wind speed: 15.10.2017 06:00:00 - 21.10.2017 06:00:00 (BST)Newcastle, United Kingdom (3245): wind direction: 15.10.2017 06:00:00 - 21.10.2017 06:00:00 (BST)Newcastle, United Kingdom (3245): visibility: 15.10.2017 06:00:00 - 21.10.2017 06:00:00 (BST)
Date & Time tt [°C] td [°C] ff [km/h] ff [kn] dd vv [km]
21.10.2017 06:00:00 - - - - - -
21.10.2017 05:00:00 11,0 10,0 8 4 S 10
21.10.2017 04:00:00 10,0 10,0 13 7 S 10
21.10.2017 03:00:00 10,0 9,0 15 8 S 8
21.10.2017 02:00:00 10,0 8,0 13 7 SSE 9
21.10.2017 01:00:00 10,0 7,0 8 4 SSE 10
21.10.2017 00:00:00 10,0 8,0 11 6 SSE 10
20.10.2017 23:00:00 10,0 8,0 13 7 S 10
20.10.2017 22:00:00 11,0 8,0 4 2 - 10
20.10.2017 21:00:00 11,0 8,0 4 2 - 10
20.10.2017 20:00:00 12,0 9,0 4 2 - 10
20.10.2017 19:00:00 13,0 10,0 11 6 SW 10
20.10.2017 18:00:00 13,0 12,0 5 3 SE 10
20.10.2017 17:00:00 14,0 13,0 4 2 - 10
20.10.2017 16:00:00 15,0 13,0 8 4 E 10
20.10.2017 15:00:00 15,0 12,0 5 3 ENE 10
20.10.2017 14:00:00 16,0 12,0 4 2 - 10
20.10.2017 13:00:00 14,0 13,0 8 4 W 10
20.10.2017 12:00:00 14,0 12,0 5 3 WNW 10
20.10.2017 11:00:00 13,0 13,0 8 4 WSW 6
20.10.2017 10:00:00 13,0 13,0 5 3 WNW 4,0
20.10.2017 09:00:00 13,0 12,0 2 1 WNW 0,5
20.10.2017 08:00:00 12,0 12,0 4 2 - 5
20.10.2017 07:00:00 13,0 12,0 2 1 - 3,0
20.10.2017 06:00:00 12,0 12,0 4 2 SE 2,0
20.10.2017 05:00:00 12,0 12,0 4 2 ESE 5
20.10.2017 04:00:00 12,0 12,0 4 2 ESE 5
20.10.2017 03:00:00 12,0 12,0 4 2 E 10
20.10.2017 02:00:00 13,0 12,0 5 3 - 10
20.10.2017 01:00:00 13,0 11,0 8 4 SSE 10
20.10.2017 00:00:00 13,0 12,0 9 5 S 10
19.10.2017 23:00:00 13,0 13,0 5 3 - 7
19.10.2017 22:00:00 13,0 13,0 5 3 - 5
19.10.2017 21:00:00 13,0 13,0 9 5 SE 1,8
19.10.2017 20:00:00 12,0 12,0 13 7 ESE 0,7
19.10.2017 19:00:00 12,0 12,0 15 8 E 1,8
19.10.2017 18:00:00 12,0 12,0 13 7 E 3,0
19.10.2017 17:00:00 13,0 12,0 9 5 ESE 3,0
19.10.2017 16:00:00 13,0 11,0 8 4 SSE 8
19.10.2017 15:00:00 13,0 11,0 8 4 SSE 9
19.10.2017 14:00:00 13,0 11,0 13 7 S 9
19.10.2017 13:00:00 12,0 10,0 5 3 - 9
19.10.2017 12:00:00 12,0 10,0 4 2 - 9
19.10.2017 11:00:00 12,0 10,0 4 2 - 9
19.10.2017 10:00:00 11,0 10,0 5 3 - 6
19.10.2017 09:00:00 11,0 10,0 5 3 - 4,5
19.10.2017 08:00:00 10,0 10,0 4 2 - 3,0
19.10.2017 07:00:00 - - - - - -
19.10.2017 06:00:00 10,0 10,0 5 3 - 5
19.10.2017 05:00:00 10,0 10,0 5 3 S 10
19.10.2017 04:00:00 10,0 10,0 4 2 - 10
19.10.2017 03:00:00 11,0 9,0 5 3 - 10
19.10.2017 02:00:00 11,0 9,0 8 4 SE 10
19.10.2017 01:00:00 11,0 9,0 5 3 - 10
19.10.2017 00:00:00 11,0 9,0 8 4 SE 10
18.10.2017 23:00:00 11,0 9,0 8 4 SE 10
18.10.2017 22:00:00 11,0 10,0 8 4 SSE 10
18.10.2017 21:00:00 11,0 10,0 11 6 ESE 10
18.10.2017 20:00:00 11,0 9,0 8 4 ESE 10
18.10.2017 19:00:00 10,0 9,0 5 3 - 10
18.10.2017 18:00:00 11,0 9,0 9 5 ESE 10
18.10.2017 17:00:00 11,0 9,0 8 4 ESE 10
18.10.2017 16:00:00 11,0 9,0 5 3 - 10
18.10.2017 15:00:00 11,0 10,0 9 5 E 10
18.10.2017 14:00:00 11,0 11,0 13 7 ESE 10
18.10.2017 13:00:00 - - - - - -
18.10.2017 12:00:00 11,0 11,0 13 7 E 6
18.10.2017 11:00:00 11,0 11,0 9 5 E 6
18.10.2017 10:00:00 11,0 10,0 9 5 E 8
18.10.2017 09:00:00 10,0 10,0 8 4 NE 4,0
18.10.2017 08:00:00 9,0 9,0 5 3 ENE 6
18.10.2017 07:00:00 9,0 9,0 2 1 NNE 10
18.10.2017 06:00:00 9,0 9,0 0 0 N 10
18.10.2017 05:00:00 10,0 10,0 5 3 - 5
18.10.2017 04:00:00 10,0 9,0 5 3 - 7
18.10.2017 03:00:00 10,0 9,0 4 2 NW 6
18.10.2017 02:00:00 9,0 9,0 5 3 - 6
18.10.2017 01:00:00 10,0 9,0 9 5 NNW 10
18.10.2017 00:00:00 10,0 9,0 8 4 NW 10
17.10.2017 23:00:00 10,0 9,0 8 4 W 10
17.10.2017 22:00:00 10,0 8,0 8 4 W 10
17.10.2017 21:00:00 10,0 8,0 13 7 W 10
17.10.2017 20:00:00 11,0 9,0 21 11 W 10
17.10.2017 19:00:00 11,0 9,0 21 11 W 10
17.10.2017 18:00:00 12,0 8,0 29 16 W 10
17.10.2017 17:00:00 12,0 9,0 35 19 WSW 10
17.10.2017 16:00:00 12,0 9,0 26 14 WSW 10
17.10.2017 15:00:00 12,0 9,0 26 14 W 10
17.10.2017 14:00:00 12,0 8,0 37 20 WSW 10
17.10.2017 13:00:00 12,0 8,0 37 20 WSW 10
17.10.2017 12:00:00 12,0 8,0 35 19 WSW 10
17.10.2017 11:00:00 12,0 7,0 29 16 WSW 10
17.10.2017 10:00:00 12,0 7,0 37 20 WSW 10
17.10.2017 09:00:00 12,0 7,0 34 18 WSW 10
17.10.2017 08:00:00 12,0 7,0 39 21 WSW 10
17.10.2017 07:00:00 12,0 7,0 34 18 SW 10
17.10.2017 06:00:00 12,0 7,0 31 17 SW 10
17.10.2017 05:00:00 12,0 7,0 31 17 SW 10
17.10.2017 04:00:00 13,0 8,0 31 17 SW 10
17.10.2017 03:00:00 13,0 9,0 41 22 SW 10
17.10.2017 02:00:00 13,0 9,0 42 23 SW 10
17.10.2017 01:00:00 13,0 9,0 46 25 SW 10
17.10.2017 00:00:00 13,0 8,0 42 23 SW 10
16.10.2017 23:00:00 13,0 8,0 44 24 SW 10
16.10.2017 22:00:00 14,0 7,0 35 19 SSW 10
16.10.2017 21:00:00 15,0 8,0 34 18 SSW 10
16.10.2017 20:00:00 15,0 7,0 31 17 SSW 10
16.10.2017 19:00:00 16,0 7,0 29 16 SSW 10
16.10.2017 18:00:00 16,0 10,0 28 15 SW 8
16.10.2017 17:00:00 17,0 16,0 15 8 S 6
16.10.2017 16:00:00 16,0 15,0 5 3 - 4,0
16.10.2017 15:00:00 - - - - - -
16.10.2017 14:00:00 13,0 13,0 9 5 SE 3,0
16.10.2017 13:00:00 13,0 12,0 9 5 ESE 3,0
16.10.2017 12:00:00 13,0 12,0 8 4 E 3,0
16.10.2017 11:00:00 13,0 12,0 9 5 ESE 4,0
16.10.2017 10:00:00 13,0 12,0 4 2 - 5
16.10.2017 09:00:00 12,0 12,0 2 1 - 7
16.10.2017 08:00:00 11,0 11,0 4 2 - 7
16.10.2017 07:00:00 11,0 11,0 5 3 - 9
16.10.2017 06:00:00 10,0 9,0 2 1 - 9
16.10.2017 05:00:00 11,0 10,0 4 2 - 10
16.10.2017 04:00:00 12,0 11,0 5 3 - 10
16.10.2017 03:00:00 - - - - - -
16.10.2017 02:00:00 13,0 11,0 5 3 - 10
16.10.2017 01:00:00 13,0 11,0 8 4 SW 10
16.10.2017 00:00:00 14,0 11,0 8 4 S 10
15.10.2017 23:00:00 15,0 12,0 2 1 - 10
15.10.2017 22:00:00 15,0 12,0 8 4 SW 10
15.10.2017 21:00:00 15,0 12,0 8 4 SSW 10
15.10.2017 20:00:00 15,0 12,0 8 4 SW 10
15.10.2017 19:00:00 15,0 12,0 15 8 SW 10
15.10.2017 18:00:00 15,0 12,0 21 11 SW 10
15.10.2017 17:00:00 16,0 12,0 18 10 SW 10
15.10.2017 16:00:00 16,0 12,0 11 6 SW 10
15.10.2017 15:00:00 17,0 12,0 18 10 SW 10
15.10.2017 14:00:00 17,0 12,0 24 13 SW 10
15.10.2017 13:00:00 17,0 12,0 26 14 SW 10
15.10.2017 12:00:00 17,0 12,0 29 16 SW 10
15.10.2017 11:00:00 17,0 12,0 28 15 SW 10
15.10.2017 10:00:00 17,0 12,0 24 13 SW 10
15.10.2017 09:00:00 15,0 12,0 11 6 WSW 10
15.10.2017 08:00:00 14,0 11,0 13 7 S 10
15.10.2017 07:00:00 14,0 11,0 2 1 - 10
15.10.2017 06:00:00 13,0 11,0 2 1 - 10

tt = temperature
td = dewpoint
ff = wind speed
dd = wind direction
vv = visibility

Next stations